createdAt,value
2023-05-17T00:00:15.934Z,10.90
2023-05-17T00:02:43.337Z,10.90
2023-05-17T00:05:12.433Z,10.90
2023-05-17T00:07:39.883Z,10.90
2023-05-17T00:10:07.933Z,10.80
2023-05-17T00:12:35.333Z,10.80
2023-05-17T00:15:02.698Z,10.80
2023-05-17T00:17:30.234Z,10.80
2023-05-17T00:19:57.777Z,10.80
2023-05-17T00:22:25.363Z,10.70
2023-05-17T00:24:52.655Z,10.70
2023-05-17T00:27:20.016Z,10.70
2023-05-17T00:29:47.314Z,10.70
2023-05-17T00:32:14.601Z,10.70
2023-05-17T00:34:42.407Z,10.70
2023-05-17T00:37:10.927Z,10.60
2023-05-17T00:39:38.287Z,10.60
2023-05-17T00:42:06.571Z,10.60
2023-05-17T00:44:34.035Z,10.60
2023-05-17T00:47:04.531Z,10.60
2023-05-17T00:49:31.928Z,10.60
2023-05-17T00:52:00.120Z,10.50
2023-05-17T00:54:27.697Z,10.50
2023-05-17T00:56:57.376Z,10.50
2023-05-17T00:59:26.421Z,10.50
2023-05-17T01:01:57.050Z,10.50
2023-05-17T01:04:25.317Z,10.50
2023-05-17T01:06:52.642Z,10.50
2023-05-17T01:09:20.038Z,10.50
2023-05-17T01:12:14.079Z,10.50
2023-05-17T01:15:14.489Z,10.40
2023-05-17T01:18:03.480Z,10.40
2023-05-17T01:20:43.927Z,10.40
2023-05-17T01:23:21.121Z,10.40
2023-05-17T01:26:06.963Z,10.40
2023-05-17T01:28:37.831Z,10.40
2023-05-17T01:31:06.208Z,10.40
2023-05-17T01:33:34.422Z,10.30
2023-05-17T01:36:02.054Z,10.30
2023-05-17T01:38:29.489Z,10.30
2023-05-17T01:41:06.870Z,10.30
2023-05-17T01:44:07.061Z,10.30
2023-05-17T01:46:42.571Z,10.30
2023-05-17T01:49:13.123Z,10.30
2023-05-17T01:52:09.520Z,10.30
2023-05-17T01:54:47.986Z,10.30
2023-05-17T01:57:17.093Z,10.20
2023-05-17T01:59:46.330Z,10.30
2023-05-17T02:02:14.252Z,10.30
2023-05-17T02:04:41.864Z,10.30
2023-05-17T02:07:09.275Z,10.30
2023-05-17T02:09:36.557Z,10.30
2023-05-17T02:12:04.222Z,10.20
2023-05-17T02:14:31.571Z,10.20
2023-05-17T02:16:59.184Z,10.20
2023-05-17T02:19:27.535Z,10.20
2023-05-17T02:21:55.009Z,10.20
2023-05-17T02:24:22.481Z,10.20
2023-05-17T02:26:50.072Z,10.30
2023-05-17T02:29:17.411Z,10.20
2023-05-17T02:31:44.936Z,10.20
2023-05-17T02:34:12.751Z,10.20
2023-05-17T02:36:41.443Z,10.20
2023-05-17T02:39:08.847Z,10.20
2023-05-17T02:41:36.281Z,10.20
2023-05-17T02:44:03.630Z,10.20
2023-05-17T02:46:30.996Z,10.20
2023-05-17T02:48:58.304Z,10.20
2023-05-17T02:51:31.744Z,10.20
2023-05-17T02:53:59.255Z,10.20
2023-05-17T02:56:26.495Z,10.20
2023-05-17T02:58:54.145Z,10.10
2023-05-17T03:01:21.785Z,10.10
2023-05-17T03:03:49.325Z,10.20
2023-05-17T03:06:17.225Z,10.20
2023-05-17T03:08:44.544Z,10.20
2023-05-17T03:11:14.991Z,10.20
2023-05-17T03:13:42.692Z,10.20
2023-05-17T03:16:10.244Z,10.20
2023-05-17T03:18:37.787Z,10.20
2023-05-17T03:21:05.682Z,10.20
2023-05-17T03:23:33.314Z,10.20
2023-05-17T03:26:00.953Z,10.20
2023-05-17T03:28:28.471Z,10.20
2023-05-17T03:30:58.565Z,10.20
2023-05-17T03:33:26.734Z,10.20
2023-05-17T03:35:54.481Z,10.20
2023-05-17T03:38:21.965Z,10.10
2023-05-17T03:40:49.709Z,10.10
2023-05-17T03:43:17.172Z,10.10
2023-05-17T03:45:47.886Z,10.10
2023-05-17T03:48:15.602Z,10.10
2023-05-17T03:50:43.026Z,10.10
2023-05-17T03:53:10.598Z,10.10
2023-05-17T03:55:38.047Z,10.10
2023-05-17T03:58:05.574Z,10.10
2023-05-17T04:00:33.502Z,10.10
2023-05-17T04:03:01.181Z,10.10
2023-05-17T04:05:28.849Z,10.10
2023-05-17T04:07:57.064Z,10.10
2023-05-17T04:10:24.644Z,10.10
2023-05-17T04:12:52.184Z,10.10
2023-05-17T04:15:20.406Z,10.10
2023-05-17T04:17:49.498Z,10.10
2023-05-17T04:20:17.225Z,10.10
2023-05-17T04:22:44.516Z,10.10
2023-05-17T04:25:13.312Z,10.00
2023-05-17T04:27:41.304Z,10.00
2023-05-17T04:30:09.313Z,10.00
2023-05-17T04:32:36.730Z,10.00
2023-05-17T04:35:04.686Z,10.00
2023-05-17T04:37:32.090Z,10.00
2023-05-17T04:39:59.722Z,9.90
2023-05-17T04:42:27.357Z,9.90
2023-05-17T04:44:54.686Z,9.90
2023-05-17T04:47:22.163Z,9.90
2023-05-17T04:49:51.805Z,9.90
2023-05-17T04:52:21.878Z,9.80
2023-05-17T04:54:49.533Z,9.80
2023-05-17T04:57:17.265Z,9.80
2023-05-17T04:59:45.518Z,9.80
2023-05-17T05:02:13.487Z,9.80
2023-05-17T05:04:41.380Z,9.80
2023-05-17T05:07:08.710Z,9.80
2023-05-17T05:09:36.086Z,9.80
2023-05-17T05:12:05.104Z,9.80
2023-05-17T05:14:32.401Z,9.80
2023-05-17T05:17:00.061Z,9.80
2023-05-17T05:19:27.611Z,9.80
2023-05-17T05:21:54.971Z,9.80
2023-05-17T05:24:22.644Z,9.80
2023-05-17T05:26:50.023Z,9.70
2023-05-17T05:29:20.484Z,9.70
2023-05-17T05:31:47.911Z,9.70
2023-05-17T05:34:15.530Z,9.70
2023-05-17T05:36:43.218Z,9.70
2023-05-17T05:39:10.651Z,9.70
2023-05-17T05:41:38.148Z,9.60
2023-05-17T05:44:05.628Z,9.60
2023-05-17T05:46:33.137Z,9.60
2023-05-17T05:49:00.924Z,9.60
2023-05-17T05:51:32.055Z,9.60
2023-05-17T05:54:00.427Z,9.60
2023-05-17T05:56:28.451Z,9.60
2023-05-17T05:58:57.784Z,9.60
2023-05-17T06:01:25.890Z,9.50
2023-05-17T06:03:53.218Z,9.50
2023-05-17T06:06:21.025Z,9.50
2023-05-17T06:08:48.567Z,9.50
2023-05-17T06:11:16.146Z,9.50
2023-05-17T06:13:43.477Z,9.50
2023-05-17T06:16:11.430Z,9.50
2023-05-17T06:18:39.144Z,9.40
2023-05-17T06:21:06.703Z,9.40
2023-05-17T06:23:34.306Z,9.40
2023-05-17T06:26:01.758Z,9.40
2023-05-17T06:28:29.136Z,9.40
2023-05-17T06:30:56.827Z,9.40
2023-05-17T06:33:24.401Z,9.30
2023-05-17T06:35:56.639Z,9.30
2023-05-17T06:38:25.394Z,9.30
2023-05-17T06:40:57.768Z,9.20
2023-05-17T06:43:25.561Z,9.20
2023-05-17T06:45:53.367Z,9.20
2023-05-17T06:48:20.891Z,9.30
2023-05-17T06:50:49.349Z,9.30
2023-05-17T06:53:16.693Z,9.30
2023-05-17T06:55:44.277Z,9.30
2023-05-17T06:58:12.427Z,9.30
2023-05-17T07:00:40.911Z,9.20
2023-05-17T07:03:08.426Z,9.20
2023-05-17T07:05:36.596Z,9.10
2023-05-17T07:08:04.336Z,9.10
2023-05-17T07:10:31.794Z,9.00
2023-05-17T07:13:00.003Z,9.00
2023-05-17T07:15:27.970Z,9.00
2023-05-17T07:17:55.729Z,9.00
2023-05-17T07:20:26.461Z,9.00
2023-05-17T07:22:53.885Z,9.00
2023-05-17T07:25:21.841Z,9.00
2023-05-17T07:27:49.478Z,9.00
2023-05-17T07:30:19.841Z,9.00
2023-05-17T07:32:47.243Z,9.00
2023-05-17T07:35:15.036Z,9.00
2023-05-17T07:37:42.914Z,9.10
2023-05-17T07:40:13.967Z,9.10
2023-05-17T07:42:41.515Z,9.10
2023-05-17T07:45:14.788Z,9.20
2023-05-17T07:47:45.634Z,9.20
2023-05-17T07:50:13.131Z,9.20
2023-05-17T07:52:40.561Z,9.30
2023-05-17T07:55:08.406Z,9.30
2023-05-17T07:57:35.801Z,9.40
2023-05-17T08:00:03.329Z,9.40
2023-05-17T08:02:30.971Z,9.50
2023-05-17T08:04:58.480Z,9.60
2023-05-17T08:07:26.026Z,9.60
2023-05-17T08:09:53.396Z,9.60
2023-05-17T08:12:21.287Z,9.70
2023-05-17T08:14:48.602Z,9.70
2023-05-17T08:17:16.075Z,9.80
2023-05-17T08:19:43.553Z,9.80
2023-05-17T08:22:10.983Z,9.90
2023-05-17T08:24:38.549Z,9.90
2023-05-17T08:27:06.262Z,9.80
2023-05-17T08:29:33.700Z,9.80
2023-05-17T08:32:02.113Z,9.80
2023-05-17T08:34:29.458Z,9.80
2023-05-17T08:36:57.169Z,9.80
2023-05-17T08:39:24.716Z,9.90
2023-05-17T08:41:52.051Z,9.90
2023-05-17T08:44:21.055Z,9.90
2023-05-17T08:46:53.940Z,9.90
2023-05-17T08:49:26.037Z,9.80
2023-05-17T08:51:59.749Z,9.80
2023-05-17T08:54:28.055Z,9.80
2023-05-17T08:56:59.049Z,9.80
2023-05-17T08:59:28.137Z,9.70
2023-05-17T09:01:55.910Z,9.70
2023-05-17T09:04:24.424Z,9.70
2023-05-17T09:06:51.970Z,9.80
2023-05-17T09:09:21.078Z,9.80
2023-05-17T09:11:48.386Z,9.80
2023-05-17T09:14:19.172Z,9.80
2023-05-17T09:16:46.533Z,9.80
2023-05-17T09:19:18.270Z,9.80
2023-05-17T09:21:48.562Z,9.80
2023-05-17T09:24:22.475Z,9.90
2023-05-17T09:26:51.477Z,9.90
2023-05-17T09:29:18.912Z,9.90
2023-05-17T09:31:46.555Z,9.90
2023-05-17T09:34:19.875Z,9.90
2023-05-17T09:36:47.580Z,9.80
2023-05-17T09:39:16.103Z,9.80
2023-05-17T09:41:47.350Z,9.80
2023-05-17T09:44:16.229Z,9.80
2023-05-17T09:46:47.783Z,9.80
2023-05-17T09:49:16.624Z,9.80
2023-05-17T09:51:50.350Z,9.80
2023-05-17T09:54:18.867Z,9.80
2023-05-17T09:56:53.542Z,9.80
2023-05-17T09:59:21.743Z,9.90
2023-05-17T10:01:50.860Z,9.90
2023-05-17T10:04:23.809Z,9.90
2023-05-17T10:06:53.334Z,9.90
2023-05-17T10:09:23.863Z,9.90
2023-05-17T10:11:53.762Z,9.90
2023-05-17T10:14:30.175Z,9.90
2023-05-17T10:16:58.272Z,9.90
2023-05-17T10:19:26.533Z,9.90
2023-05-17T10:24:24.717Z,9.90
2023-05-17T10:26:52.395Z,9.90
2023-05-17T10:29:21.985Z,10.00
2023-05-17T10:31:53.723Z,10.00
2023-05-17T10:34:21.511Z,10.00
2023-05-17T10:36:53.531Z,10.00
2023-05-17T10:39:22.525Z,10.10
2023-05-17T10:41:55.726Z,10.10
2023-05-17T10:44:35.064Z,10.10
2023-05-17T10:47:03.008Z,10.00
2023-05-17T10:49:32.893Z,10.00
2023-05-17T10:52:22.390Z,10.00
2023-05-17T10:54:50.984Z,10.00
2023-05-17T10:57:39.011Z,10.10
2023-05-17T11:00:21.412Z,10.10
2023-05-17T11:02:50.998Z,10.10
2023-05-17T11:05:27.763Z,10.10
2023-05-17T11:08:17.734Z,10.10
2023-05-17T11:11:12.857Z,10.00
2023-05-17T11:13:54.707Z,10.00
2023-05-17T11:16:40.895Z,10.10
2023-05-17T11:19:10.488Z,10.00
2023-05-17T11:21:47.593Z,10.10
2023-05-17T11:24:25.673Z,10.10
2023-05-17T11:26:56.450Z,10.10
2023-05-17T11:29:31.858Z,10.10
2023-05-17T11:31:59.534Z,10.20
2023-05-17T11:34:28.098Z,10.20
2023-05-17T11:36:56.695Z,10.20
2023-05-17T11:39:25.041Z,10.20
2023-05-17T11:41:54.583Z,10.30
2023-05-17T11:44:32.345Z,10.30
2023-05-17T11:47:10.478Z,10.30
2023-05-17T11:49:39.098Z,10.40
2023-05-17T11:52:07.752Z,10.40
2023-05-17T11:54:35.893Z,10.40
2023-05-17T11:57:04.379Z,10.50
2023-05-17T11:59:41.557Z,10.50
2023-05-17T12:02:09.636Z,10.40
2023-05-17T12:04:38.629Z,10.50
2023-05-17T12:07:10.910Z,10.50
2023-05-17T12:09:40.932Z,10.50
2023-05-17T12:12:09.137Z,10.60
2023-05-17T12:14:37.050Z,10.60
2023-05-17T12:17:10.036Z,10.70
2023-05-17T12:19:37.770Z,10.60
2023-05-17T12:22:15.875Z,10.60
2023-05-17T12:24:43.977Z,10.60
2023-05-17T12:27:14.742Z,10.60
2023-05-17T12:29:42.393Z,10.60
2023-05-17T12:32:12.169Z,10.60
2023-05-17T12:34:39.821Z,10.60
2023-05-17T12:37:11.033Z,10.60
2023-05-17T12:39:39.432Z,10.50
2023-05-17T12:42:07.683Z,10.60
2023-05-17T12:44:35.945Z,10.60
2023-05-17T12:47:04.108Z,10.60
2023-05-17T12:49:31.887Z,10.70
2023-05-17T12:52:05.767Z,10.70
2023-05-17T12:54:33.940Z,10.70
2023-05-17T12:57:12.749Z,10.80
2023-05-17T12:59:55.646Z,10.80
2023-05-17T13:02:24.194Z,10.80
2023-05-17T13:04:51.919Z,10.80
2023-05-17T13:07:25.773Z,10.90
2023-05-17T13:09:53.548Z,10.90
2023-05-17T13:12:25.035Z,10.90
2023-05-17T13:14:53.833Z,11.00
2023-05-17T13:17:35.816Z,11.00
2023-05-17T13:20:05.354Z,11.00
2023-05-17T13:22:37.144Z,11.00
2023-05-17T13:25:05.838Z,11.20
2023-05-17T13:27:33.466Z,11.20
2023-05-17T13:30:01.088Z,11.20
2023-05-17T13:32:28.626Z,11.20
2023-05-17T13:34:56.338Z,11.20
2023-05-17T13:37:23.989Z,11.20
2023-05-17T13:39:56.482Z,11.30
2023-05-17T13:42:24.121Z,11.30
2023-05-17T13:44:51.795Z,11.40
2023-05-17T13:47:19.256Z,11.40
2023-05-17T13:49:46.892Z,11.40
2023-05-17T13:52:15.061Z,11.50
2023-05-17T13:54:43.524Z,11.60
2023-05-17T13:57:10.919Z,11.60
2023-05-17T13:59:38.471Z,11.70
2023-05-17T14:02:06.877Z,11.70
2023-05-17T14:04:35.253Z,11.80
2023-05-17T14:07:04.051Z,11.90
2023-05-17T14:09:34.050Z,12.00
2023-05-17T14:12:05.423Z,12.00
2023-05-17T14:14:32.992Z,12.10
2023-05-17T14:17:01.859Z,12.30
2023-05-17T14:19:34.143Z,12.40
2023-05-17T14:22:01.997Z,12.50
2023-05-17T14:24:29.543Z,12.70
2023-05-17T14:26:58.217Z,12.70
2023-05-17T14:29:30.462Z,12.80
2023-05-17T14:31:58.002Z,12.80
2023-05-17T14:34:25.636Z,12.70
2023-05-17T14:36:53.742Z,12.70
2023-05-17T14:39:21.327Z,12.60
2023-05-17T14:41:48.829Z,12.60
2023-05-17T14:44:16.617Z,12.70
2023-05-17T14:46:43.973Z,12.70
2023-05-17T14:49:11.668Z,12.70
2023-05-17T14:51:39.186Z,12.70
2023-05-17T14:54:06.704Z,12.60
2023-05-17T14:56:34.717Z,12.60
2023-05-17T14:59:03.039Z,12.70
2023-05-17T15:01:30.523Z,12.70
2023-05-17T15:03:58.105Z,12.70
2023-05-17T15:06:26.487Z,12.60
2023-05-17T15:08:54.723Z,12.60
2023-05-17T15:11:22.153Z,12.60
2023-05-17T15:13:49.532Z,12.50
2023-05-17T15:16:17.006Z,12.50
2023-05-17T15:18:44.673Z,12.50
2023-05-17T15:21:12.360Z,12.40
2023-05-17T15:23:39.821Z,12.30
2023-05-17T15:26:07.480Z,12.30
2023-05-17T15:28:34.723Z,12.30
2023-05-17T15:31:03.782Z,12.20
2023-05-17T15:33:34.405Z,12.10
2023-05-17T15:36:02.277Z,12.10
2023-05-17T15:38:29.908Z,12.10
2023-05-17T15:41:06.512Z,12.10
2023-05-17T15:43:35.281Z,12.00
2023-05-17T15:46:02.851Z,12.10
2023-05-17T15:48:33.237Z,12.10
2023-05-17T15:51:01.240Z,12.00
2023-05-17T15:53:29.993Z,11.90
2023-05-17T15:55:57.760Z,11.90
2023-05-17T15:58:29.137Z,11.90
2023-05-17T16:00:56.640Z,11.90
2023-05-17T16:03:26.828Z,12.00
2023-05-17T16:05:57.259Z,12.00
2023-05-17T16:08:25.919Z,12.00
2023-05-17T16:10:53.651Z,12.00
2023-05-17T16:13:21.437Z,12.00
2023-05-17T16:15:49.497Z,12.00
2023-05-17T16:18:19.722Z,11.90
2023-05-17T16:20:48.644Z,12.00
2023-05-17T16:23:19.281Z,11.90
2023-05-17T16:25:55.350Z,11.90
2023-05-17T16:28:30.133Z,11.80
2023-05-17T16:31:03.726Z,11.80
2023-05-17T16:33:34.758Z,11.80
2023-05-17T16:36:07.418Z,11.70
2023-05-17T16:38:37.720Z,11.70
2023-05-17T16:41:05.113Z,11.70
2023-05-17T16:43:32.688Z,11.70
2023-05-17T16:46:00.438Z,11.70
2023-05-17T16:48:28.486Z,11.70
2023-05-17T16:50:59.859Z,11.60
2023-05-17T16:53:30.488Z,11.60
2023-05-17T16:56:02.078Z,11.60
2023-05-17T16:58:32.220Z,11.60
2023-05-17T17:01:05.969Z,11.60
2023-05-17T17:03:34.812Z,11.60
2023-05-17T17:06:02.372Z,11.60
2023-05-17T17:08:30.284Z,11.60
2023-05-17T17:11:02.181Z,11.60
2023-05-17T17:13:30.497Z,11.60
2023-05-17T17:16:05.229Z,11.60
2023-05-17T17:18:33.131Z,11.50
2023-05-17T17:21:00.856Z,11.50
2023-05-17T17:23:35.761Z,11.40
2023-05-17T17:26:03.285Z,11.50
2023-05-17T17:28:35.510Z,11.40
2023-05-17T17:31:03.189Z,11.40
2023-05-17T17:33:33.645Z,11.30
2023-05-17T17:36:01.941Z,11.30
2023-05-17T17:38:29.698Z,11.30
2023-05-17T17:41:03.930Z,11.20
2023-05-17T17:43:31.626Z,11.20
2023-05-17T17:46:00.530Z,11.20
2023-05-17T17:48:31.755Z,11.10
2023-05-17T17:51:00.220Z,11.10
2023-05-17T17:53:29.414Z,11.10
2023-05-17T17:55:59.369Z,11.00
2023-05-17T17:58:28.992Z,11.00
2023-05-17T18:01:00.540Z,11.00
2023-05-17T18:03:38.015Z,10.90
2023-05-17T18:06:08.520Z,10.90
2023-05-17T18:08:42.574Z,10.90
2023-05-17T18:11:17.540Z,10.90
2023-05-17T18:13:45.547Z,10.90
2023-05-17T18:16:17.850Z,10.90
2023-05-17T18:18:47.669Z,10.90
2023-05-17T18:21:15.781Z,10.90
2023-05-17T18:23:45.917Z,10.80
2023-05-17T18:26:17.208Z,10.80
2023-05-17T18:28:47.495Z,10.80
2023-05-17T18:31:20.578Z,10.70
2023-05-17T18:33:49.501Z,10.70
2023-05-17T18:36:21.406Z,10.70
2023-05-17T18:38:53.054Z,10.70
2023-05-17T18:41:22.933Z,10.70
2023-05-17T18:43:50.870Z,10.60
2023-05-17T18:46:22.531Z,10.60
2023-05-17T18:48:51.098Z,10.60
2023-05-17T18:51:19.057Z,10.60
2023-05-17T18:53:46.809Z,10.50
2023-05-17T18:56:21.472Z,10.50
2023-05-17T18:58:56.226Z,10.50
2023-05-17T19:01:23.850Z,10.50
2023-05-17T19:03:55.362Z,10.50
2023-05-17T19:06:24.545Z,10.50
2023-05-17T19:08:52.315Z,10.50
2023-05-17T19:11:19.775Z,10.40
2023-05-17T19:13:48.938Z,10.40
2023-05-17T19:16:16.977Z,10.40
2023-05-17T19:18:44.431Z,10.30
2023-05-17T19:21:15.796Z,10.30
2023-05-17T19:23:43.691Z,10.30
2023-05-17T19:26:11.578Z,10.30
2023-05-17T19:28:40.303Z,10.30
2023-05-17T19:31:09.253Z,10.30
2023-05-17T19:33:40.136Z,10.20
2023-05-17T19:36:08.116Z,10.20
2023-05-17T19:38:35.684Z,10.20
2023-05-17T19:41:06.317Z,10.20
2023-05-17T19:43:36.123Z,10.20
2023-05-17T19:46:11.872Z,10.20
2023-05-17T19:48:40.298Z,10.20
2023-05-17T19:51:08.362Z,10.20
2023-05-17T19:53:50.925Z,10.20
2023-05-17T19:56:19.952Z,10.20
2023-05-17T19:58:47.443Z,10.20
2023-05-17T20:01:14.754Z,10.20
2023-05-17T20:03:42.359Z,10.20
2023-05-17T20:06:14.438Z,10.10
2023-05-17T20:08:43.125Z,10.10
2023-05-17T20:11:11.128Z,10.10
2023-05-17T20:13:41.870Z,10.10
2023-05-17T20:16:15.585Z,10.10
2023-05-17T20:18:43.984Z,10.10
2023-05-17T20:21:12.917Z,10.00
2023-05-17T20:23:41.288Z,10.00
2023-05-17T20:26:08.700Z,10.00
2023-05-17T20:28:36.081Z,10.00
2023-05-17T20:31:03.540Z,10.00
2023-05-17T20:33:30.994Z,10.00
2023-05-17T20:35:59.247Z,10.00
2023-05-17T20:38:26.733Z,10.00
2023-05-17T20:40:54.303Z,10.00
2023-05-17T20:43:27.008Z,10.00
2023-05-17T20:45:54.291Z,9.90
2023-05-17T20:48:21.706Z,9.90
2023-05-17T20:50:49.375Z,9.90
2023-05-17T20:53:16.801Z,9.90
2023-05-17T20:55:44.735Z,9.90
2023-05-17T20:58:12.288Z,9.90
2023-05-17T21:00:39.877Z,9.90
2023-05-17T21:03:09.653Z,9.80
2023-05-17T21:05:38.821Z,9.80
2023-05-17T21:08:13.645Z,9.80
2023-05-17T21:10:43.263Z,9.80
2023-05-17T21:13:10.664Z,9.80
2023-05-17T21:15:38.031Z,9.80
2023-05-17T21:18:07.089Z,9.80
2023-05-17T21:20:34.607Z,9.80
2023-05-17T21:23:02.168Z,9.80
2023-05-17T21:25:29.799Z,9.80
2023-05-17T21:27:57.303Z,9.80
2023-05-17T21:30:24.903Z,9.80
2023-05-17T21:32:52.280Z,9.80
2023-05-17T21:35:19.877Z,9.70
2023-05-17T21:37:47.673Z,9.70
2023-05-17T21:40:15.230Z,9.70
2023-05-17T21:42:42.821Z,9.70
2023-05-17T21:45:11.825Z,9.70
2023-05-17T21:47:39.279Z,9.70
2023-05-17T21:50:08.321Z,9.80
2023-05-17T21:52:35.849Z,9.70
2023-05-17T21:55:03.248Z,9.80
2023-05-17T21:57:30.719Z,9.80
2023-05-17T21:59:58.574Z,9.70
2023-05-17T22:02:26.134Z,9.70
2023-05-17T22:04:54.475Z,9.70
2023-05-17T22:07:21.775Z,9.70
2023-05-17T22:09:49.309Z,9.60
2023-05-17T22:12:16.613Z,9.70
2023-05-17T22:14:45.781Z,9.70
2023-05-17T22:17:15.396Z,9.70
2023-05-17T22:19:45.499Z,9.70
2023-05-17T22:22:13.010Z,9.70
2023-05-17T22:24:40.354Z,9.60
2023-05-17T22:27:07.642Z,9.60
2023-05-17T22:29:35.326Z,9.60
2023-05-17T22:32:02.729Z,9.60
2023-05-17T22:34:30.315Z,9.60
2023-05-17T22:36:57.665Z,9.50
2023-05-17T22:39:25.103Z,9.50
2023-05-17T22:41:52.953Z,9.50
2023-05-17T22:44:21.948Z,9.50
2023-05-17T22:46:49.493Z,9.50
2023-05-17T22:49:17.203Z,9.50
2023-05-17T22:51:44.796Z,9.50
2023-05-17T22:54:12.170Z,9.50
2023-05-17T22:56:39.528Z,9.40
2023-05-17T22:59:06.790Z,9.40
2023-05-17T23:01:34.467Z,9.40
2023-05-17T23:04:01.958Z,9.40
2023-05-17T23:06:32.578Z,9.40
2023-05-17T23:09:00.600Z,9.40
2023-05-17T23:11:28.620Z,9.40
2023-05-17T23:13:56.128Z,9.40
2023-05-17T23:16:26.316Z,9.40
2023-05-17T23:18:53.779Z,9.40
2023-05-17T23:21:21.847Z,9.40
2023-05-17T23:23:50.189Z,9.40
2023-05-17T23:26:17.575Z,9.40
2023-05-17T23:28:44.922Z,9.40
2023-05-17T23:31:12.382Z,9.30
2023-05-17T23:33:42.924Z,9.40
2023-05-17T23:36:10.809Z,9.40
2023-05-17T23:38:38.206Z,9.40
2023-05-17T23:41:05.817Z,9.30
2023-05-17T23:43:33.454Z,9.30
2023-05-17T23:46:02.308Z,9.30
2023-05-17T23:48:29.757Z,9.30
2023-05-17T23:50:57.168Z,9.30
2023-05-17T23:53:26.413Z,9.30
2023-05-17T23:55:53.912Z,9.20
2023-05-17T23:58:21.380Z,9.20
